createdAt,value
2022-12-04T00:01:26.869Z,99626.63
2022-12-04T00:03:55.474Z,99631.91
2022-12-04T00:06:24.124Z,99633.00
2022-12-04T00:08:51.912Z,99635.78
2022-12-04T00:11:23.296Z,99639.41
2022-12-04T00:13:50.901Z,99643.97
2022-12-04T00:16:22.344Z,99645.91
2022-12-04T00:18:50.091Z,99640.63
2022-12-04T00:21:19.408Z,99637.47
2022-12-04T00:23:47.196Z,99623.50
2022-12-04T00:26:23.766Z,99626.13
2022-12-04T00:28:51.830Z,99619.19
2022-12-04T00:31:23.168Z,99608.66
2022-12-04T00:33:50.451Z,99618.22
2022-12-04T00:36:24.718Z,99619.31
2022-12-04T00:38:52.138Z,99610.44
2022-12-04T00:41:24.357Z,99597.28
2022-12-04T00:43:51.737Z,99604.38
2022-12-04T00:46:19.011Z,99606.16
2022-12-04T00:48:46.782Z,99593.84
2022-12-04T00:51:24.214Z,99587.75
2022-12-04T00:53:52.927Z,99585.94
2022-12-04T00:56:25.192Z,99596.47
2022-12-04T00:58:55.213Z,99603.00
2022-12-04T01:01:24.222Z,99613.53
2022-12-04T01:03:52.008Z,99597.75
2022-12-04T01:06:29.217Z,99599.56
2022-12-04T01:08:58.012Z,99599.66
2022-12-04T01:11:26.825Z,99604.25
2022-12-04T01:13:54.022Z,99602.59
2022-12-04T01:16:37.786Z,99595.69
2022-12-04T01:19:08.085Z,99602.59
2022-12-04T01:21:36.669Z,99611.47
2022-12-04T01:24:04.610Z,99617.56
2022-12-04T01:26:32.133Z,99618.38
2022-12-04T01:28:59.289Z,99613.97
2022-12-04T01:31:26.370Z,99606.88
2022-12-04T01:33:53.466Z,99605.91
2022-12-04T01:36:27.691Z,99607.56
2022-12-04T01:38:55.336Z,99604.25
2022-12-04T01:41:30.167Z,99603.28
2022-12-04T01:44:26.641Z,99595.53
2022-12-04T01:47:01.723Z,99599.00
2022-12-04T01:49:37.941Z,99596.38
2022-12-04T01:52:19.858Z,99588.47
2022-12-04T01:54:58.757Z,99597.34
2022-12-04T01:57:31.137Z,99598.00
2022-12-04T02:00:08.847Z,99593.72
2022-12-04T02:02:39.799Z,99594.56
2022-12-04T02:05:11.910Z,99597.75
2022-12-04T02:07:40.952Z,99600.38
2022-12-04T02:10:09.576Z,99592.47
2022-12-04T02:12:50.943Z,99590.69
2022-12-04T02:15:26.179Z,99606.31
2022-12-04T02:18:21.166Z,99607.28
2022-12-04T02:21:03.518Z,99602.84
2022-12-04T02:24:05.363Z,99602.03
2022-12-04T02:26:59.939Z,99598.44
2022-12-04T02:29:44.830Z,99603.69
2022-12-04T02:32:32.660Z,99600.06
2022-12-04T02:35:12.381Z,99597.44
2022-12-04T02:37:45.888Z,99592.84
2022-12-04T02:40:38.415Z,99591.19
2022-12-04T02:43:38.509Z,99598.13
2022-12-04T02:46:26.620Z,99599.81
2022-12-04T02:48:58.356Z,99591.91
2022-12-04T02:51:30.485Z,99585.66
2022-12-04T02:54:15.531Z,99574.16
2022-12-04T02:56:46.463Z,99570.56
2022-12-04T02:59:22.974Z,99563.47
2022-12-04T03:01:54.606Z,99573.84
2022-12-04T03:04:26.397Z,99565.97
2022-12-04T03:07:24.992Z,99571.09
2022-12-04T03:09:59.664Z,99567.50
2022-12-04T03:13:05.091Z,99562.22
2022-12-04T03:15:41.103Z,99570.94
2022-12-04T03:18:32.915Z,99572.59
2022-12-04T03:21:06.731Z,99562.06
2022-12-04T03:23:50.090Z,99563.72
2022-12-04T03:26:42.179Z,99561.94
2022-12-04T03:29:28.494Z,99565.53
2022-12-04T03:32:16.450Z,99567.03
2022-12-04T03:35:23.431Z,99563.56
2022-12-04T03:38:10.870Z,99558.19
2022-12-04T03:41:04.972Z,99562.47
2022-12-04T03:43:44.773Z,99565.78
2022-12-04T03:46:51.556Z,99563.16
2022-12-04T03:49:57.655Z,99562.16
2022-12-04T03:53:00.050Z,99553.44
2022-12-04T03:55:37.048Z,99547.19
2022-12-04T03:58:11.078Z,99546.22
2022-12-04T04:00:42.485Z,99557.63
2022-12-04T04:03:30.305Z,99553.28
2022-12-04T04:06:07.345Z,99547.09
2022-12-04T04:08:39.753Z,99552.19
2022-12-04T04:11:19.125Z,99535.56
2022-12-04T04:14:35.510Z,99533.75
2022-12-04T04:17:33.566Z,99537.22
2022-12-04T04:20:33.807Z,99534.59
2022-12-04T04:23:21.683Z,99535.41
2022-12-04T04:25:48.787Z,99529.16
2022-12-04T04:28:38.243Z,99532.63
2022-12-04T04:31:36.185Z,99534.28
2022-12-04T04:34:20.801Z,99535.09
2022-12-04T04:37:21.884Z,99535.94
2022-12-04T04:40:14.925Z,99533.31
2022-12-04T04:43:24.965Z,99538.44
2022-12-04T04:46:02.469Z,99550.06
2022-12-04T04:48:30.281Z,99554.38
2022-12-04T04:51:00.114Z,99556.03
2022-12-04T04:53:43.434Z,99558.69
2022-12-04T04:56:10.609Z,99559.63
2022-12-04T04:58:37.547Z,99562.25
2022-12-04T05:01:11.165Z,99562.25
2022-12-04T05:03:38.895Z,99566.59
2022-12-04T05:06:06.611Z,99565.59
2022-12-04T05:08:34.728Z,99562.00
2022-12-04T05:11:02.054Z,99563.63
2022-12-04T05:13:30.354Z,99557.53
2022-12-04T05:16:02.262Z,99567.94
2022-12-04T05:18:31.017Z,99566.94
2022-12-04T05:20:58.265Z,99561.69
2022-12-04T05:23:25.732Z,99558.06
2022-12-04T05:26:03.875Z,99554.47
2022-12-04T05:28:31.180Z,99542.28
2022-12-04T05:31:01.919Z,99549.22
2022-12-04T05:33:30.238Z,99551.69
2022-12-04T05:36:06.651Z,99557.78
2022-12-04T05:38:35.918Z,99560.41
2022-12-04T05:41:05.522Z,99563.88
2022-12-04T05:43:33.308Z,99558.78
2022-12-04T05:46:06.302Z,99562.22
2022-12-04T05:48:35.492Z,99557.78
2022-12-04T05:51:10.416Z,99563.06
2022-12-04T05:53:38.293Z,99565.53
2022-12-04T05:56:07.395Z,99568.16
2022-12-04T05:58:36.674Z,99570.66
2022-12-04T06:01:17.563Z,99561.09
2022-12-04T06:03:45.449Z,99561.09
2022-12-04T06:06:21.057Z,99574.09
2022-12-04T06:08:50.941Z,99564.44
2022-12-04T06:11:23.442Z,99554.72
2022-12-04T06:13:50.857Z,99556.38
2022-12-04T06:16:28.798Z,99554.56
2022-12-04T06:18:59.876Z,99564.94
2022-12-04T06:21:30.552Z,99555.25
2022-12-04T06:23:58.215Z,99553.28
2022-12-04T06:26:26.278Z,99549.00
2022-12-04T06:28:56.723Z,99552.44
2022-12-04T06:31:26.341Z,99551.63
2022-12-04T06:33:55.497Z,99554.13
2022-12-04T06:36:23.103Z,99560.22
2022-12-04T06:38:51.835Z,99561.06
2022-12-04T06:41:20.825Z,99558.28
2022-12-04T06:43:48.709Z,99567.00
2022-12-04T06:46:31.651Z,99570.47
2022-12-04T06:49:00.722Z,99571.28
2022-12-04T06:51:35.158Z,99575.56
2022-12-04T06:54:02.321Z,99571.28
2022-12-04T06:56:32.748Z,99570.47
2022-12-04T06:59:03.737Z,99566.84
2022-12-04T07:01:33.495Z,99569.63
2022-12-04T07:04:03.785Z,99566.84
2022-12-04T07:06:37.575Z,99556.31
2022-12-04T07:09:13.236Z,99555.78
2022-12-04T07:11:41.434Z,99554.66
2022-12-04T07:14:09.348Z,99555.47
2022-12-04T07:16:40.837Z,99555.47
2022-12-04T07:19:11.202Z,99556.31
2022-12-04T07:21:38.564Z,99555.47
2022-12-04T07:24:06.313Z,99563.22
2022-12-04T07:26:33.393Z,99568.50
2022-12-04T07:29:00.473Z,99578.09
2022-12-04T07:31:29.489Z,99575.44
2022-12-04T07:33:57.596Z,99576.28
2022-12-04T07:36:26.432Z,99580.72
2022-12-04T07:38:56.388Z,99577.94
2022-12-04T07:41:23.591Z,99579.59
2022-12-04T07:43:50.504Z,99572.50
2022-12-04T07:46:22.385Z,99562.94
2022-12-04T07:48:49.403Z,99562.78
2022-12-04T07:51:20.239Z,99565.28
2022-12-04T07:53:48.447Z,99567.91
2022-12-04T07:56:16.018Z,99560.69
2022-12-04T07:58:43.713Z,99562.34
2022-12-04T08:01:17.846Z,99562.34
2022-12-04T08:03:48.453Z,99564.84
2022-12-04T08:06:18.415Z,99560.41
2022-12-04T08:08:46.375Z,99558.75
2022-12-04T08:11:17.607Z,99551.66
2022-12-04T08:13:45.717Z,99555.78
2022-12-04T08:16:14.201Z,99562.03
2022-12-04T08:18:46.415Z,99561.88
2022-12-04T08:21:17.466Z,99558.31
2022-12-04T08:23:44.471Z,99555.50
2022-12-04T08:26:12.688Z,99560.63
2022-12-04T08:28:40.982Z,99572.00
2022-12-04T08:31:20.599Z,99559.81
2022-12-04T08:33:49.922Z,99563.09
2022-12-04T08:36:20.014Z,99565.63
2022-12-04T08:38:48.496Z,99567.28
2022-12-04T08:41:18.800Z,99566.13
2022-12-04T08:43:45.977Z,99568.59
2022-12-04T08:46:18.509Z,99569.44
2022-12-04T08:48:46.049Z,99561.41
2022-12-04T08:51:20.572Z,99559.44
2022-12-04T08:53:48.126Z,99547.91
2022-12-04T08:56:15.125Z,99554.69
2022-12-04T08:58:42.064Z,99551.91
2022-12-04T09:01:14.637Z,99558.84
2022-12-04T09:03:42.586Z,99558.69
2022-12-04T09:06:12.622Z,99559.34
2022-12-04T09:08:39.870Z,99575.88
2022-12-04T09:11:20.116Z,99580.97
2022-12-04T09:13:47.610Z,99583.47
2022-12-04T09:16:21.696Z,99580.66
2022-12-04T09:18:49.852Z,99581.50
2022-12-04T09:21:19.567Z,99575.25
2022-12-04T09:23:46.800Z,99584.81
2022-12-04T09:26:32.063Z,99579.41
2022-12-04T09:29:02.354Z,99589.78
2022-12-04T09:31:29.554Z,99595.06
2022-12-04T09:33:59.583Z,99589.63
2022-12-04T09:36:27.696Z,99583.41
2022-12-04T09:38:55.651Z,99583.25
2022-12-04T09:41:57.458Z,99589.19
2022-12-04T09:44:57.904Z,99585.56
2022-12-04T09:47:37.538Z,99579.31
2022-12-04T09:50:21.336Z,99574.72
2022-12-04T09:53:07.056Z,99570.13
2022-12-04T09:55:49.790Z,99571.78
2022-12-04T09:58:46.592Z,99572.44
2022-12-04T10:01:24.449Z,99564.41
2022-12-04T10:03:54.347Z,99563.25
2022-12-04T10:06:32.837Z,99556.00
2022-12-04T10:09:22.454Z,99531.31
2022-12-04T10:12:09.380Z,99527.69
2022-12-04T10:15:06.478Z,99528.38
2022-12-04T10:18:07.643Z,99527.38
2022-12-04T10:21:21.939Z,99517.50
2022-12-04T10:24:17.453Z,99510.28
2022-12-04T10:26:48.864Z,99509.28
2022-12-04T10:29:32.749Z,99507.31
2022-12-04T10:32:30.599Z,99500.06
2022-12-04T10:35:24.662Z,99497.28
2022-12-04T10:38:02.135Z,99494.50
2022-12-04T10:40:49.057Z,99496.97
2022-12-04T10:43:29.257Z,99494.16
2022-12-04T10:45:56.592Z,99493.22
2022-12-04T10:48:36.816Z,99489.41
2022-12-04T10:51:04.168Z,99480.34
2022-12-04T10:53:36.353Z,99483.00
2022-12-04T10:56:14.640Z,99487.16
2022-12-04T10:58:41.666Z,99494.91
2022-12-04T11:01:13.912Z,99485.16
2022-12-04T11:03:44.097Z,99478.91
2022-12-04T11:06:13.727Z,99481.38
2022-12-04T11:08:49.945Z,99476.94
2022-12-04T11:11:33.053Z,99480.41
2022-12-04T11:14:17.312Z,99475.97
2022-12-04T11:16:49.210Z,99482.06
2022-12-04T11:19:28.897Z,99482.72
2022-12-04T11:22:17.801Z,99487.03
2022-12-04T11:24:56.473Z,99488.66
2022-12-04T11:27:34.196Z,99493.94
2022-12-04T11:30:08.559Z,99496.47
2022-12-04T11:32:36.550Z,99503.38
2022-12-04T11:35:17.422Z,99504.22
2022-12-04T11:37:55.391Z,99498.78
2022-12-04T11:40:23.744Z,99496.13
2022-12-04T11:43:14.134Z,99508.34
2022-12-04T11:45:41.762Z,99510.16
2022-12-04T11:48:18.502Z,99502.22
2022-12-04T11:51:22.621Z,99498.59
2022-12-04T11:54:00.141Z,99500.25
2022-12-04T11:56:38.369Z,99494.16
2022-12-04T11:59:43.365Z,99495.81
2022-12-04T12:02:49.459Z,99489.41
2022-12-04T12:05:43.362Z,99506.06
2022-12-04T12:08:50.646Z,99499.97
2022-12-04T12:11:26.607Z,99492.88
2022-12-04T12:14:24.666Z,99495.34
2022-12-04T12:17:30.381Z,99497.97
2022-12-04T12:20:36.793Z,99507.72
2022-12-04T12:23:11.774Z,99513.81
2022-12-04T12:26:08.615Z,99507.53
2022-12-04T12:29:05.608Z,99504.09
2022-12-04T12:32:06.454Z,99486.44
2022-12-04T12:34:46.096Z,99483.78
2022-12-04T12:37:28.668Z,99479.19
2022-12-04T12:40:23.908Z,99478.50
2022-12-04T12:43:22.653Z,99484.63
2022-12-04T12:46:11.243Z,99483.78
2022-12-04T12:48:59.760Z,99478.50
2022-12-04T12:51:48.783Z,99477.69
2022-12-04T12:54:48.160Z,99471.56
2022-12-04T12:57:33.291Z,99453.56
2022-12-04T13:00:22.281Z,99458.03
2022-12-04T13:03:50.523Z,99439.72
2022-12-04T13:06:24.873Z,99442.53
2022-12-04T13:09:35.869Z,99442.00
2022-12-04T13:12:10.687Z,99443.81
2022-12-04T13:14:38.252Z,99443.16
2022-12-04T13:17:35.366Z,99445.94
2022-12-04T13:20:10.485Z,99447.06
2022-12-04T13:23:11.794Z,99440.16
2022-12-04T13:26:03.208Z,99435.84
2022-12-04T13:28:51.214Z,99431.56
2022-12-04T13:31:38.065Z,99429.91
2022-12-04T13:34:35.602Z,99423.00
2022-12-04T13:37:49.339Z,99418.53
2022-12-04T13:40:35.715Z,99416.03
2022-12-04T13:43:27.562Z,99416.03
2022-12-04T13:45:59.237Z,99415.22
2022-12-04T13:48:41.110Z,99424.13
2022-12-04T13:51:37.100Z,99418.84
2022-12-04T13:54:24.954Z,99421.66
2022-12-04T13:56:55.898Z,99426.09
2022-12-04T13:59:30.558Z,99435.00
2022-12-04T14:02:21.306Z,99428.91
2022-12-04T14:05:11.787Z,99433.34
2022-12-04T14:07:42.889Z,99436.13
2022-12-04T14:10:15.784Z,99441.41
2022-12-04T14:12:58.127Z,99439.75
2022-12-04T14:15:29.856Z,99434.63
2022-12-04T14:18:29.529Z,99447.00
2022-12-04T14:21:04.768Z,99448.81
2022-12-04T14:23:39.391Z,99450.63
2022-12-04T14:26:56.019Z,99451.63
2022-12-04T14:29:39.338Z,99456.91
2022-12-04T14:32:14.327Z,99463.13
2022-12-04T14:34:41.395Z,99459.53
2022-12-04T14:37:27.241Z,99459.53
2022-12-04T14:39:55.730Z,99461.34
2022-12-04T14:42:36.341Z,99464.81
2022-12-04T14:45:17.267Z,99456.91
2022-12-04T14:48:28.077Z,99452.44
2022-12-04T14:51:28.135Z,99443.69
2022-12-04T14:54:41.200Z,99448.97
2022-12-04T14:57:41.094Z,99442.88
2022-12-04T15:00:22.252Z,99444.66
2022-12-04T15:02:54.774Z,99433.44
2022-12-04T15:05:29.418Z,99436.09
2022-12-04T15:08:06.228Z,99434.28
2022-12-04T15:10:54.210Z,99425.69
2022-12-04T15:13:33.865Z,99432.63
2022-12-04T15:16:18.547Z,99415.16
2022-12-04T15:19:00.643Z,99420.59
2022-12-04T15:21:39.894Z,99428.50
2022-12-04T15:24:20.205Z,99433.78
2022-12-04T15:26:49.867Z,99433.78
2022-12-04T15:29:23.414Z,99439.88
2022-12-04T15:31:56.805Z,99445.97
2022-12-04T15:34:43.604Z,99442.69
2022-12-04T15:37:25.640Z,99452.25
2022-12-04T15:39:53.973Z,99445.31
2022-12-04T15:42:24.519Z,99446.97
2022-12-04T15:45:21.893Z,99447.94
2022-12-04T15:47:48.746Z,99447.94
2022-12-04T15:50:15.594Z,99441.81
2022-12-04T15:53:06.090Z,99442.69
2022-12-04T15:55:47.062Z,99446.13
2022-12-04T15:58:29.642Z,99450.59
2022-12-04T16:01:07.480Z,99463.78
2022-12-04T16:03:43.551Z,99453.22
2022-12-04T16:06:21.791Z,99463.78
2022-12-04T16:09:21.821Z,99462.91
2022-12-04T16:11:59.630Z,99473.47
2022-12-04T16:14:27.141Z,99474.34
2022-12-04T16:17:05.541Z,99476.97
2022-12-04T16:19:39.190Z,99469.06
2022-12-04T16:22:20.756Z,99475.97
2022-12-04T16:24:48.027Z,99470.69
2022-12-04T16:27:20.043Z,99472.34
2022-12-04T16:29:47.257Z,99456.53
2022-12-04T16:32:19.136Z,99452.91
2022-12-04T16:34:47.165Z,99447.63
2022-12-04T16:37:20.338Z,99443.34
2022-12-04T16:39:47.842Z,99439.72
2022-12-04T16:42:25.172Z,99431.81
2022-12-04T16:44:52.890Z,99436.09
2022-12-04T16:47:20.583Z,99436.09
2022-12-04T16:49:50.817Z,99428.19
2022-12-04T16:52:21.334Z,99428.19
2022-12-04T16:54:48.375Z,99427.34
2022-12-04T16:57:15.518Z,99425.53
2022-12-04T16:59:42.534Z,99424.53
2022-12-04T17:02:23.276Z,99429.81
2022-12-04T17:04:55.672Z,99426.19
2022-12-04T17:07:24.388Z,99430.66
2022-12-04T17:09:51.312Z,99420.91
2022-12-04T17:12:18.280Z,99424.41
2022-12-04T17:14:45.204Z,99415.66
2022-12-04T17:17:12.219Z,99421.78
2022-12-04T17:19:39.736Z,99412.03
2022-12-04T17:22:07.826Z,99413.69
2022-12-04T17:24:37.214Z,99412.88
2022-12-04T17:27:06.253Z,99413.69
2022-12-04T17:29:33.211Z,99419.81
2022-12-04T17:32:00.238Z,99415.34
2022-12-04T17:34:27.192Z,99424.09
2022-12-04T17:36:56.178Z,99425.91
2022-12-04T17:39:23.287Z,99420.63
2022-12-04T17:41:50.223Z,99429.38
2022-12-04T17:44:17.245Z,99440.75
2022-12-04T17:46:45.335Z,99445.19
2022-12-04T17:49:12.539Z,99442.56
2022-12-04T17:51:39.943Z,99446.84
2022-12-04T17:54:08.659Z,99446.00
2022-12-04T17:56:35.591Z,99449.47
2022-12-04T17:59:02.775Z,99447.66
2022-12-04T18:01:31.155Z,99450.31
2022-12-04T18:04:04.292Z,99444.19
2022-12-04T18:06:40.977Z,99452.13
2022-12-04T18:09:10.699Z,99452.94
2022-12-04T18:11:41.201Z,99447.66
2022-12-04T18:14:12.903Z,99449.47
2022-12-04T18:16:47.107Z,99460.84
2022-12-04T18:19:14.884Z,99450.31
2022-12-04T18:21:41.853Z,99461.84
2022-12-04T18:24:09.541Z,99459.22
2022-12-04T18:26:40.469Z,99449.66
2022-12-04T18:29:08.553Z,99458.53
2022-12-04T18:31:35.619Z,99453.28
2022-12-04T18:34:04.577Z,99447.16
2022-12-04T18:36:32.373Z,99447.31
2022-12-04T18:39:04.149Z,99445.66
2022-12-04T18:41:31.309Z,99446.63
2022-12-04T18:43:58.694Z,99449.28
2022-12-04T18:46:26.386Z,99450.25
2022-12-04T18:48:55.399Z,99444.16
2022-12-04T18:51:30.059Z,99457.34
2022-12-04T18:54:22.071Z,99454.88
2022-12-04T18:56:50.045Z,99457.50
2022-12-04T18:59:23.950Z,99460.16
2022-12-04T19:01:51.618Z,99464.75
2022-12-04T19:04:21.975Z,99467.38
2022-12-04T19:06:52.849Z,99466.53
2022-12-04T19:09:47.295Z,99465.88
2022-12-04T19:12:13.396Z,99469.34
2022-12-04T19:14:40.433Z,99475.59
2022-12-04T19:17:07.609Z,99476.44
2022-12-04T19:19:34.650Z,99478.41
2022-12-04T19:22:02.143Z,99475.94
2022-12-04T19:24:29.107Z,99485.50
2022-12-04T19:26:56.196Z,99494.41
2022-12-04T19:29:23.298Z,99504.94
2022-12-04T19:31:54.673Z,99493.53
2022-12-04T19:34:24.760Z,99495.34
2022-12-04T19:36:54.732Z,99503.25
2022-12-04T19:39:21.717Z,99512.00
2022-12-04T19:41:48.738Z,99509.38
2022-12-04T19:44:47.317Z,99517.28
2022-12-04T19:47:03.344Z,99511.19
2022-12-04T19:49:30.267Z,99522.56
2022-12-04T19:51:57.263Z,99519.91
2022-12-04T19:54:25.084Z,99531.31
2022-12-04T19:56:52.511Z,99531.31
2022-12-04T19:59:20.518Z,99526.88
2022-12-04T20:01:48.034Z,99528.69
2022-12-04T20:04:15.540Z,99530.34
2022-12-04T20:06:45.327Z,99533.97
2022-12-04T20:09:22.625Z,99531.31
2022-12-04T20:11:49.652Z,99534.91
2022-12-04T20:14:17.171Z,99540.19
2022-12-04T20:16:44.754Z,99536.59
2022-12-04T20:19:15.825Z,99535.75
2022-12-04T20:21:43.807Z,99541.88
2022-12-04T20:24:15.646Z,99535.75
2022-12-04T20:26:44.573Z,99539.22
2022-12-04T20:29:14.039Z,99536.59
2022-12-04T20:31:45.341Z,99539.06
2022-12-04T20:34:16.939Z,99542.69
2022-12-04T20:36:47.060Z,99564.63
2022-12-04T20:39:15.844Z,99559.34
2022-12-04T20:41:43.232Z,99548.78
2022-12-04T20:44:15.448Z,99545.34
2022-12-04T20:46:43.428Z,99541.88
2022-12-04T20:49:21.729Z,99541.00
2022-12-04T20:51:51.323Z,99552.41
2022-12-04T20:54:21.901Z,99547.16
2022-12-04T20:56:50.168Z,99540.19
2022-12-04T20:59:19.280Z,99540.19
2022-12-04T21:01:47.421Z,99546.28
2022-12-04T21:04:17.432Z,99544.63
2022-12-04T21:06:46.532Z,99540.19
2022-12-04T21:09:20.835Z,99537.56
2022-12-04T21:11:51.703Z,99537.56
2022-12-04T21:14:42.234Z,99540.19
2022-12-04T21:17:14.298Z,99537.56
2022-12-04T21:19:41.368Z,99540.19
2022-12-04T21:22:08.420Z,99534.91
2022-12-04T21:24:38.419Z,99540.19
2022-12-04T21:27:12.407Z,99545.47
2022-12-04T21:29:43.547Z,99542.81
2022-12-04T21:32:10.543Z,99541.00
2022-12-04T21:34:37.511Z,99542.81
2022-12-04T21:37:04.509Z,99548.09
2022-12-04T21:39:31.593Z,99540.19
2022-12-04T21:42:16.943Z,99562.13
2022-12-04T21:44:43.860Z,99556.00
2022-12-04T21:47:10.922Z,99556.00
2022-12-04T21:49:37.888Z,99566.56
2022-12-04T21:52:04.922Z,99562.28
2022-12-04T21:54:32.002Z,99572.81
2022-12-04T21:56:59.330Z,99570.19
2022-12-04T21:59:27.261Z,99570.19
2022-12-04T22:01:54.591Z,99572.66
2022-12-04T22:04:22.082Z,99572.66
2022-12-04T22:06:49.194Z,99570.03
2022-12-04T22:09:17.110Z,99570.19
2022-12-04T22:11:44.895Z,99574.47
2022-12-04T22:14:12.258Z,99581.44
2022-12-04T22:16:42.873Z,99576.16
2022-12-04T22:19:11.693Z,99578.78
2022-12-04T22:21:40.019Z,99577.94
2022-12-04T22:24:08.265Z,99583.09
2022-12-04T22:26:35.194Z,99584.91
2022-12-04T22:29:11.187Z,99588.34
2022-12-04T22:31:50.285Z,99598.75
2022-12-04T22:34:19.737Z,99603.19
2022-12-04T22:36:50.004Z,99596.13
2022-12-04T22:39:17.156Z,99590.00
2022-12-04T22:41:44.184Z,99600.41
2022-12-04T22:44:11.106Z,99599.56
2022-12-04T22:46:38.228Z,99606.50
2022-12-04T22:49:05.379Z,99610.78
2022-12-04T22:51:32.387Z,99609.97
2022-12-04T22:53:59.340Z,99609.16
2022-12-04T22:56:31.922Z,99605.69
2022-12-04T22:59:00.361Z,99604.69
2022-12-04T23:01:30.903Z,99610.94
2022-12-04T23:03:59.333Z,99615.25
2022-12-04T23:06:30.203Z,99603.88
2022-12-04T23:09:04.486Z,99602.06
2022-12-04T23:11:31.461Z,99597.75
2022-12-04T23:14:02.635Z,99596.78
2022-12-04T23:16:32.802Z,99601.06
2022-12-04T23:18:59.903Z,99612.44
2022-12-04T23:21:28.238Z,99608.16
2022-12-04T23:23:56.132Z,99611.78
2022-12-04T23:26:29.264Z,99606.50
2022-12-04T23:28:57.266Z,99610.94
2022-12-04T23:31:25.075Z,99602.22
2022-12-04T23:33:52.060Z,99613.44
2022-12-04T23:36:19.092Z,99618.88
2022-12-04T23:38:46.368Z,99617.06
2022-12-04T23:41:29.201Z,99624.31
2022-12-04T23:43:57.340Z,99628.75
2022-12-04T23:46:32.136Z,99635.13
2022-12-04T23:49:00.701Z,99644.03
2022-12-04T23:51:28.701Z,99636.44
2022-12-04T23:53:55.988Z,99647.81
2022-12-04T23:56:26.708Z,99652.53
2022-12-04T23:58:56.424Z,99649.91
